createdAt,value
2023-05-19T00:02:06.013Z,12.00
2023-05-19T00:04:33.608Z,12.00
2023-05-19T00:07:00.926Z,12.00
2023-05-19T00:09:27.976Z,12.00
2023-05-19T00:11:54.942Z,12.00
2023-05-19T00:14:21.838Z,12.00
2023-05-19T00:16:48.863Z,12.00
2023-05-19T00:19:16.964Z,12.10
2023-05-19T00:21:43.832Z,12.10
2023-05-19T00:24:10.777Z,12.00
2023-05-19T00:26:40.131Z,11.90
2023-05-19T00:29:06.938Z,11.80
2023-05-19T00:31:36.800Z,11.80
2023-05-19T00:34:03.592Z,11.70
2023-05-19T00:36:31.031Z,11.80
2023-05-19T00:38:57.762Z,11.70
2023-05-19T00:41:24.461Z,11.80
2023-05-19T00:43:51.221Z,11.80
2023-05-19T00:46:19.309Z,11.80
2023-05-19T00:48:46.237Z,11.70
2023-05-19T00:51:14.754Z,11.60
2023-05-19T00:53:41.563Z,11.60
2023-05-19T00:56:08.315Z,11.60
2023-05-19T00:58:35.041Z,11.50
2023-05-19T01:01:03.144Z,11.60
2023-05-19T01:03:37.379Z,11.60
2023-05-19T01:06:07.435Z,11.60
2023-05-19T01:08:35.119Z,11.60
2023-05-19T01:11:01.842Z,11.60
2023-05-19T01:13:28.899Z,11.70
2023-05-19T01:16:03.748Z,11.60
2023-05-19T01:18:46.379Z,11.70
2023-05-19T01:21:23.998Z,11.60
2023-05-19T01:23:57.116Z,11.60
2023-05-19T01:26:43.971Z,11.50
2023-05-19T01:29:25.623Z,11.50
2023-05-19T01:31:52.372Z,11.40
2023-05-19T01:34:19.278Z,11.40
2023-05-19T01:36:48.554Z,11.30
2023-05-19T01:39:15.539Z,11.40
2023-05-19T01:41:42.279Z,11.40
2023-05-19T01:44:09.632Z,11.30
2023-05-19T01:46:37.005Z,11.30
2023-05-19T01:49:03.873Z,11.30
2023-05-19T01:51:31.441Z,11.30
2023-05-19T01:53:58.225Z,11.30
2023-05-19T01:56:48.731Z,11.40
2023-05-19T01:59:49.777Z,11.50
2023-05-19T02:02:42.094Z,11.40
2023-05-19T02:05:38.384Z,11.40
2023-05-19T02:08:25.487Z,11.40
2023-05-19T02:10:56.524Z,11.30
2023-05-19T02:13:24.260Z,11.30
2023-05-19T02:15:51.004Z,11.30
2023-05-19T02:18:20.261Z,11.20
2023-05-19T02:20:47.041Z,11.10
2023-05-19T02:23:13.784Z,11.10
2023-05-19T02:25:40.742Z,11.10
2023-05-19T02:28:07.474Z,11.10
2023-05-19T02:30:34.410Z,11.10
2023-05-19T02:33:01.424Z,11.10
2023-05-19T02:35:28.222Z,11.20
2023-05-19T02:37:54.996Z,11.20
2023-05-19T02:40:21.920Z,11.20
2023-05-19T02:42:48.642Z,11.10
2023-05-19T02:45:15.354Z,10.90
2023-05-19T02:47:42.130Z,10.70
2023-05-19T02:50:09.224Z,10.70
2023-05-19T02:52:35.928Z,10.70
2023-05-19T02:55:02.643Z,10.80
2023-05-19T02:57:31.539Z,10.80
2023-05-19T02:59:58.303Z,10.90
2023-05-19T03:02:25.158Z,10.80
2023-05-19T03:04:52.020Z,10.80
2023-05-19T03:07:18.739Z,10.70
2023-05-19T03:09:45.463Z,10.70
2023-05-19T03:12:12.368Z,10.70
2023-05-19T03:14:39.113Z,10.70
2023-05-19T03:17:08.015Z,10.80
2023-05-19T03:19:35.022Z,10.80
2023-05-19T03:22:01.762Z,10.90
2023-05-19T03:24:28.484Z,10.80
2023-05-19T03:26:55.690Z,10.80
2023-05-19T03:29:22.508Z,10.70
2023-05-19T03:31:49.260Z,10.80
2023-05-19T03:34:16.066Z,10.80
2023-05-19T03:36:43.090Z,10.70
2023-05-19T03:39:09.807Z,10.70
2023-05-19T03:41:36.547Z,10.70
2023-05-19T03:44:03.274Z,10.60
2023-05-19T03:46:30.057Z,10.60
2023-05-19T03:48:56.779Z,10.60
2023-05-19T03:51:23.529Z,10.70
2023-05-19T03:53:50.309Z,10.70
2023-05-19T03:56:18.199Z,10.60
2023-05-19T03:58:46.907Z,10.60
2023-05-19T04:01:13.746Z,10.60
2023-05-19T04:03:40.651Z,10.60
2023-05-19T04:06:08.162Z,10.50
2023-05-19T04:08:34.906Z,10.60
2023-05-19T04:11:01.861Z,10.60
2023-05-19T04:13:28.643Z,10.50
2023-05-19T04:15:55.380Z,10.50
2023-05-19T04:18:22.182Z,10.50
2023-05-19T04:20:49.108Z,10.50
2023-05-19T04:23:15.968Z,10.50
2023-05-19T04:25:42.709Z,10.50
2023-05-19T04:28:09.453Z,10.60
2023-05-19T04:30:37.025Z,10.50
2023-05-19T04:33:04.851Z,10.60
2023-05-19T04:35:31.806Z,10.50
2023-05-19T04:37:58.577Z,10.60
2023-05-19T04:40:25.921Z,10.60
2023-05-19T04:42:52.742Z,10.60
2023-05-19T04:45:19.782Z,10.70
2023-05-19T04:47:49.358Z,10.70
2023-05-19T04:50:16.925Z,10.80
2023-05-19T04:52:45.732Z,10.80
2023-05-19T04:55:13.236Z,10.80
2023-05-19T04:57:40.262Z,10.70
2023-05-19T05:00:13.861Z,10.70
2023-05-19T05:02:42.831Z,10.80
2023-05-19T05:05:10.218Z,10.90
2023-05-19T05:07:36.938Z,10.90
2023-05-19T05:10:04.078Z,10.90
2023-05-19T05:12:31.681Z,11.00
2023-05-19T05:14:58.752Z,11.10
2023-05-19T05:17:27.133Z,11.20
2023-05-19T05:19:54.495Z,11.20
2023-05-19T05:22:21.577Z,11.20
2023-05-19T05:24:48.896Z,11.30
2023-05-19T05:27:15.643Z,11.30
2023-05-19T05:29:42.438Z,11.40
2023-05-19T05:32:09.197Z,11.40
2023-05-19T05:34:38.036Z,11.50
2023-05-19T05:37:04.975Z,11.40
2023-05-19T05:39:31.874Z,11.50
2023-05-19T05:41:58.608Z,11.50
2023-05-19T05:44:25.427Z,11.60
2023-05-19T05:46:52.309Z,11.50
2023-05-19T05:49:19.224Z,11.60
2023-05-19T05:52:01.489Z,11.60
2023-05-19T05:54:31.762Z,11.60
2023-05-19T05:56:58.643Z,11.60
2023-05-19T05:59:25.534Z,11.70
2023-05-19T06:01:52.248Z,11.80
2023-05-19T06:04:20.482Z,11.90
2023-05-19T06:06:47.259Z,11.80
2023-05-19T06:09:14.025Z,12.00
2023-05-19T06:11:40.962Z,12.00
2023-05-19T06:14:07.751Z,12.00
2023-05-19T06:16:34.633Z,12.00
2023-05-19T06:19:01.465Z,12.10
2023-05-19T06:21:28.223Z,12.10
2023-05-19T06:23:54.982Z,12.20
2023-05-19T06:26:22.144Z,12.20
2023-05-19T06:28:48.892Z,12.30
2023-05-19T06:31:16.479Z,12.30
2023-05-19T06:33:43.305Z,12.40
2023-05-19T06:36:10.720Z,12.40
2023-05-19T06:38:37.479Z,12.30
2023-05-19T06:41:04.246Z,12.20
2023-05-19T06:43:30.999Z,12.20
2023-05-19T06:45:57.745Z,12.30
2023-05-19T06:48:24.603Z,12.30
2023-05-19T06:50:51.939Z,12.40
2023-05-19T06:53:19.841Z,12.50
2023-05-19T06:55:58.021Z,12.60
2023-05-19T06:58:26.839Z,12.70
2023-05-19T07:00:53.716Z,12.70
2023-05-19T07:03:20.658Z,12.80
2023-05-19T07:05:47.713Z,12.90
2023-05-19T07:08:14.613Z,13.00
2023-05-19T07:10:41.342Z,13.10
2023-05-19T07:13:08.043Z,13.10
2023-05-19T07:15:34.870Z,13.10
2023-05-19T07:18:01.610Z,13.10
2023-05-19T07:20:28.420Z,13.20
2023-05-19T07:22:55.386Z,13.20
2023-05-19T07:25:22.101Z,13.10
2023-05-19T07:27:48.938Z,13.20
2023-05-19T07:30:15.716Z,13.30
2023-05-19T07:32:42.610Z,13.40
2023-05-19T07:35:09.401Z,13.40
2023-05-19T07:37:36.229Z,13.50
2023-05-19T07:40:03.128Z,13.50
2023-05-19T07:42:29.833Z,13.50
2023-05-19T07:44:56.596Z,13.60
2023-05-19T07:47:23.498Z,13.60
2023-05-19T07:49:52.193Z,13.60
2023-05-19T07:52:22.004Z,13.60
2023-05-19T07:54:48.811Z,13.70
2023-05-19T07:57:15.988Z,13.70
2023-05-19T07:59:42.780Z,13.80
2023-05-19T08:02:09.624Z,13.90
2023-05-19T08:04:36.591Z,13.90
2023-05-19T08:07:03.872Z,13.90
2023-05-19T08:09:30.610Z,13.90
2023-05-19T08:11:57.877Z,13.80
2023-05-19T08:14:24.726Z,13.70
2023-05-19T08:16:51.712Z,13.70
2023-05-19T08:19:18.532Z,13.80
2023-05-19T08:21:45.470Z,14.00
2023-05-19T08:24:12.512Z,14.10
2023-05-19T08:26:39.371Z,14.20
2023-05-19T08:29:06.140Z,14.40
2023-05-19T08:31:33.314Z,14.50
2023-05-19T08:34:00.156Z,14.60
2023-05-19T08:36:27.636Z,14.60
2023-05-19T08:38:54.398Z,14.50
2023-05-19T08:41:21.700Z,14.50
2023-05-19T08:43:48.684Z,14.60
2023-05-19T08:46:16.852Z,14.70
2023-05-19T08:48:44.386Z,14.70
2023-05-19T08:51:11.283Z,14.60
2023-05-19T08:53:40.640Z,14.60
2023-05-19T08:56:16.847Z,14.60
2023-05-19T08:58:44.909Z,14.50
2023-05-19T09:01:14.228Z,14.50
2023-05-19T09:03:41.389Z,14.40
2023-05-19T09:06:09.186Z,14.40
2023-05-19T09:08:37.163Z,14.40
2023-05-19T09:11:04.066Z,14.50
2023-05-19T09:13:31.082Z,14.40
2023-05-19T09:15:57.979Z,14.40
2023-05-19T09:18:28.118Z,14.40
2023-05-19T09:21:05.202Z,14.50
2023-05-19T09:23:35.323Z,14.50
2023-05-19T09:26:07.192Z,14.40
2023-05-19T09:28:35.677Z,14.60
2023-05-19T09:31:07.811Z,14.60
2023-05-19T09:33:36.214Z,14.50
2023-05-19T09:36:05.542Z,14.60
2023-05-19T09:38:32.453Z,14.60
2023-05-19T09:41:00.115Z,14.70
2023-05-19T09:43:34.235Z,14.80
2023-05-19T09:46:05.026Z,14.90
2023-05-19T09:48:31.966Z,14.80
2023-05-19T09:51:00.102Z,14.80
2023-05-19T09:53:27.028Z,14.80
2023-05-19T09:56:00.157Z,14.80
2023-05-19T09:58:27.130Z,14.70
2023-05-19T10:00:54.961Z,14.80
2023-05-19T10:03:25.356Z,14.80
2023-05-19T10:05:52.499Z,14.70
2023-05-19T10:08:19.244Z,14.70
2023-05-19T10:10:47.209Z,14.70
2023-05-19T10:13:14.097Z,14.60
2023-05-19T10:15:57.358Z,14.60
2023-05-19T10:18:26.621Z,14.60
2023-05-19T10:20:53.454Z,14.60
2023-05-19T10:23:20.359Z,14.70
2023-05-19T10:25:47.905Z,14.80
2023-05-19T10:28:16.272Z,14.90
2023-05-19T10:30:47.700Z,14.90
2023-05-19T10:33:17.192Z,14.90
2023-05-19T10:36:08.990Z,14.90
2023-05-19T10:38:45.771Z,15.00
2023-05-19T10:41:41.476Z,15.10
2023-05-19T10:44:46.382Z,15.20
2023-05-19T10:47:13.337Z,15.20
2023-05-19T10:49:40.227Z,15.30
2023-05-19T10:52:25.697Z,15.30
2023-05-19T10:54:54.718Z,15.40
2023-05-19T10:57:28.293Z,15.50
2023-05-19T10:59:56.455Z,15.50
2023-05-19T11:02:42.133Z,15.60
2023-05-19T11:05:14.738Z,15.70
2023-05-19T11:07:43.442Z,15.70
2023-05-19T11:10:10.846Z,15.70
2023-05-19T11:12:45.580Z,15.80
2023-05-19T11:15:13.836Z,16.00
2023-05-19T11:17:43.700Z,16.20
2023-05-19T11:20:25.958Z,16.40
2023-05-19T11:23:06.964Z,16.50
2023-05-19T11:25:43.577Z,16.60
2023-05-19T11:28:15.514Z,16.60
2023-05-19T11:30:43.440Z,16.70
2023-05-19T11:33:10.699Z,16.60
2023-05-19T11:35:38.143Z,16.70
2023-05-19T11:38:06.077Z,16.80
2023-05-19T11:40:33.195Z,16.70
2023-05-19T11:43:01.813Z,16.80
2023-05-19T11:45:29.748Z,17.00
2023-05-19T11:48:02.562Z,17.10
2023-05-19T11:50:31.246Z,17.30
2023-05-19T11:53:00.036Z,17.40
2023-05-19T11:55:27.668Z,17.60
2023-05-19T12:00:31.095Z,17.70
2023-05-19T12:02:58.194Z,17.70
2023-05-19T12:05:25.710Z,17.70
2023-05-19T12:07:52.867Z,17.60
2023-05-19T12:10:23.770Z,17.70
2023-05-19T12:12:51.437Z,17.80
2023-05-19T12:15:22.143Z,17.70
2023-05-19T12:17:56.374Z,17.90
2023-05-19T12:20:23.590Z,18.10
2023-05-19T12:22:50.787Z,18.30
2023-05-19T12:25:17.568Z,18.40
2023-05-19T12:27:44.444Z,18.40
2023-05-19T12:30:12.660Z,18.40
2023-05-19T12:32:39.412Z,18.30
2023-05-19T12:35:06.825Z,18.20
2023-05-19T12:37:34.885Z,18.20
2023-05-19T12:40:02.024Z,18.30
2023-05-19T12:42:31.314Z,18.30
2023-05-19T12:45:03.227Z,18.20
2023-05-19T12:47:36.737Z,18.30
2023-05-19T12:50:04.813Z,18.50
2023-05-19T12:52:35.344Z,18.40
2023-05-19T12:55:05.271Z,18.40
2023-05-19T12:57:35.822Z,18.50
2023-05-19T13:00:06.945Z,18.60
2023-05-19T13:02:35.642Z,18.80
2023-05-19T13:05:04.659Z,18.80
2023-05-19T13:07:31.405Z,18.70
2023-05-19T13:09:58.624Z,18.70
2023-05-19T13:12:26.081Z,18.90
2023-05-19T13:14:55.430Z,19.10
2023-05-19T13:17:22.451Z,19.30
2023-05-19T13:19:49.432Z,19.30
2023-05-19T13:22:16.199Z,19.40
2023-05-19T13:24:43.062Z,19.40
2023-05-19T13:27:09.864Z,19.30
2023-05-19T13:29:36.605Z,19.40
2023-05-19T13:32:03.336Z,19.40
2023-05-19T13:34:30.148Z,19.40
2023-05-19T13:36:56.938Z,19.40
2023-05-19T13:39:23.716Z,19.40
2023-05-19T13:41:50.666Z,19.50
2023-05-19T13:44:17.463Z,19.50
2023-05-19T13:46:45.965Z,19.60
2023-05-19T13:49:15.002Z,19.60
2023-05-19T13:51:42.982Z,19.80
2023-05-19T13:54:10.109Z,20.00
2023-05-19T13:56:36.957Z,20.30
2023-05-19T13:59:04.244Z,20.40
2023-05-19T14:01:31.002Z,20.30
2023-05-19T14:03:58.174Z,20.30
2023-05-19T14:06:25.050Z,20.40
2023-05-19T14:08:51.801Z,20.40
2023-05-19T14:11:22.573Z,20.40
2023-05-19T14:13:52.908Z,21.00
2023-05-19T14:16:23.201Z,21.80
2023-05-19T14:18:50.046Z,22.30
2023-05-19T14:21:16.832Z,23.00
2023-05-19T14:23:43.626Z,23.60
2023-05-19T14:26:10.418Z,24.00
2023-05-19T14:28:37.127Z,24.40
2023-05-19T14:31:04.242Z,24.80
2023-05-19T14:33:34.903Z,24.90
2023-05-19T14:36:02.378Z,25.00
2023-05-19T14:38:29.617Z,25.00
2023-05-19T14:40:56.948Z,25.10
2023-05-19T14:43:23.721Z,25.20
2023-05-19T14:45:50.626Z,25.20
2023-05-19T14:48:17.568Z,25.40
2023-05-19T14:50:44.633Z,25.60
2023-05-19T14:53:11.567Z,25.70
2023-05-19T14:55:38.374Z,25.70
2023-05-19T14:58:15.830Z,25.30
2023-05-19T15:00:47.931Z,25.10
2023-05-19T15:03:14.696Z,25.30
2023-05-19T15:05:41.563Z,25.80
2023-05-19T15:08:08.382Z,26.00
2023-05-19T15:10:35.225Z,26.20
2023-05-19T15:13:02.160Z,26.40
2023-05-19T15:15:28.896Z,26.50
2023-05-19T15:17:55.704Z,26.50
2023-05-19T15:20:22.450Z,26.20
2023-05-19T15:22:49.164Z,26.10
2023-05-19T15:25:15.992Z,26.00
2023-05-19T15:27:42.771Z,26.10
2023-05-19T15:30:09.679Z,25.90
2023-05-19T15:32:36.538Z,25.60
2023-05-19T15:35:03.348Z,25.90
2023-05-19T15:37:30.045Z,26.10
2023-05-19T15:39:56.754Z,26.30
2023-05-19T15:42:23.451Z,26.50
2023-05-19T15:44:50.299Z,26.60
2023-05-19T15:47:17.230Z,26.20
2023-05-19T15:49:44.028Z,26.00
2023-05-19T15:52:10.920Z,26.20
2023-05-19T15:54:37.676Z,26.50
2023-05-19T15:57:04.721Z,26.50
2023-05-19T15:59:31.437Z,26.70
2023-05-19T16:01:58.410Z,26.90
2023-05-19T16:04:25.265Z,26.80
2023-05-19T16:06:52.034Z,26.50
2023-05-19T16:09:18.853Z,26.50
2023-05-19T16:11:45.614Z,26.60
2023-05-19T16:14:12.358Z,26.40
2023-05-19T16:16:39.152Z,26.50
2023-05-19T16:19:06.077Z,26.10
2023-05-19T16:21:32.873Z,25.90
2023-05-19T16:23:59.699Z,25.70
2023-05-19T16:26:26.483Z,25.80
2023-05-19T16:28:53.223Z,26.00
2023-05-19T16:31:20.152Z,25.90
2023-05-19T16:33:47.294Z,25.70
2023-05-19T16:36:14.101Z,25.80
2023-05-19T16:38:40.950Z,25.90
2023-05-19T16:41:11.486Z,26.00
2023-05-19T16:43:38.355Z,25.80
2023-05-19T16:46:05.432Z,25.80
2023-05-19T16:48:32.236Z,25.80
2023-05-19T16:50:59.464Z,26.10
2023-05-19T16:53:26.278Z,26.20
2023-05-19T16:55:53.034Z,26.30
2023-05-19T16:58:19.728Z,26.30
2023-05-19T17:00:46.542Z,26.00
2023-05-19T17:03:13.484Z,26.00
2023-05-19T17:05:41.960Z,26.10
2023-05-19T17:08:09.013Z,25.60
2023-05-19T17:10:36.044Z,25.40
2023-05-19T17:13:02.778Z,25.80
2023-05-19T17:15:29.542Z,25.70
2023-05-19T17:17:56.314Z,25.60
2023-05-19T17:20:23.147Z,25.60
2023-05-19T17:22:49.860Z,25.30
2023-05-19T17:25:16.580Z,25.30
2023-05-19T17:27:43.327Z,25.10
2023-05-19T17:30:10.493Z,24.90
2023-05-19T17:32:39.638Z,25.00
2023-05-19T17:35:07.118Z,25.30
2023-05-19T17:37:33.924Z,25.40
2023-05-19T17:40:00.968Z,25.50
2023-05-19T17:42:29.081Z,25.50
2023-05-19T17:44:55.801Z,25.50
2023-05-19T17:47:22.501Z,25.10
2023-05-19T17:49:50.154Z,25.10
2023-05-19T17:52:19.169Z,24.80
2023-05-19T17:54:46.202Z,24.70
2023-05-19T17:57:12.948Z,24.70
2023-05-19T17:59:39.900Z,24.20
2023-05-19T18:02:07.418Z,23.80
2023-05-19T18:04:34.474Z,23.90
2023-05-19T18:07:01.297Z,23.70
2023-05-19T18:09:29.105Z,23.60
2023-05-19T18:11:56.899Z,23.30
2023-05-19T18:14:23.730Z,22.90
2023-05-19T18:16:50.621Z,22.70
2023-05-19T18:19:17.464Z,22.30
2023-05-19T18:21:44.223Z,21.80
2023-05-19T18:24:11.387Z,21.30
2023-05-19T18:26:41.770Z,21.20
2023-05-19T18:29:11.680Z,21.40
2023-05-19T18:31:38.591Z,21.10
2023-05-19T18:34:05.502Z,20.70
2023-05-19T18:36:32.278Z,20.10
2023-05-19T18:38:59.276Z,19.80
2023-05-19T18:41:34.718Z,19.60
2023-05-19T18:44:01.461Z,19.30
2023-05-19T18:46:28.314Z,18.90
2023-05-19T18:48:55.356Z,18.70
2023-05-19T18:51:22.276Z,18.40
2023-05-19T18:53:50.121Z,18.30
2023-05-19T18:56:31.219Z,18.20
2023-05-19T18:58:58.077Z,18.00
2023-05-19T19:01:25.065Z,17.70
2023-05-19T19:03:51.923Z,17.60
2023-05-19T19:06:20.727Z,17.50
2023-05-19T19:08:47.579Z,17.40
2023-05-19T19:11:14.365Z,17.30
2023-05-19T19:13:41.268Z,17.10
2023-05-19T19:16:08.022Z,17.00
2023-05-19T19:18:36.448Z,16.90
2023-05-19T19:21:05.462Z,16.80
2023-05-19T19:23:32.905Z,16.70
2023-05-19T19:26:00.129Z,16.50
2023-05-19T19:28:27.005Z,16.40
2023-05-19T19:30:53.998Z,16.40
2023-05-19T19:33:21.362Z,16.30
2023-05-19T19:35:48.125Z,16.10
2023-05-19T19:38:15.312Z,16.10
2023-05-19T19:40:42.083Z,16.10
2023-05-19T19:43:08.798Z,16.00
2023-05-19T19:45:39.122Z,16.00
2023-05-19T19:48:07.327Z,15.90
2023-05-19T19:50:34.839Z,15.80
2023-05-19T19:53:01.949Z,15.80
2023-05-19T19:55:30.644Z,15.70
2023-05-19T19:57:57.478Z,15.60
2023-05-19T20:00:24.417Z,15.50
2023-05-19T20:03:04.294Z,15.40
2023-05-19T20:05:32.099Z,15.40
2023-05-19T20:07:59.076Z,15.30
2023-05-19T20:10:27.360Z,15.30
2023-05-19T20:12:54.168Z,15.20
2023-05-19T20:15:20.855Z,15.10
2023-05-19T20:17:47.601Z,15.20
2023-05-19T20:20:14.696Z,15.10
2023-05-19T20:22:41.574Z,15.00
2023-05-19T20:25:08.817Z,15.00
2023-05-19T20:27:35.910Z,14.90
2023-05-19T20:30:02.743Z,14.90
2023-05-19T20:32:29.678Z,14.80
2023-05-19T20:34:56.596Z,14.80
2023-05-19T20:37:23.569Z,14.70
2023-05-19T20:39:50.607Z,14.70
2023-05-19T20:42:17.449Z,14.60
2023-05-19T20:44:44.203Z,14.60
2023-05-19T20:47:11.536Z,14.50
2023-05-19T20:49:38.473Z,14.40
2023-05-19T20:52:05.460Z,14.40
2023-05-19T20:54:32.195Z,14.30
2023-05-19T20:56:59.104Z,14.20
2023-05-19T20:59:26.017Z,14.20
2023-05-19T21:01:52.743Z,14.20
2023-05-19T21:04:19.602Z,14.10
2023-05-19T21:06:46.408Z,14.10
2023-05-19T21:09:14.657Z,14.10
2023-05-19T21:11:41.382Z,14.10
2023-05-19T21:14:08.452Z,14.00
2023-05-19T21:16:38.743Z,14.00
2023-05-19T21:19:06.614Z,14.00
2023-05-19T21:21:33.833Z,13.90
2023-05-19T21:24:00.834Z,13.90
2023-05-19T21:26:27.599Z,13.80
2023-05-19T21:28:54.461Z,13.80
2023-05-19T21:31:21.344Z,13.70
2023-05-19T21:33:48.117Z,13.70
2023-05-19T21:36:14.882Z,13.70
2023-05-19T21:38:41.627Z,13.70
2023-05-19T21:41:08.325Z,13.60
2023-05-19T21:43:35.056Z,13.60
2023-05-19T21:46:02.047Z,13.50
2023-05-19T21:48:28.845Z,13.50
2023-05-19T21:50:55.885Z,13.50
2023-05-19T21:53:22.675Z,13.40
2023-05-19T21:55:49.528Z,13.40
2023-05-19T21:58:16.378Z,13.40
2023-05-19T22:00:45.668Z,13.30
2023-05-19T22:03:12.969Z,13.30
2023-05-19T22:05:39.758Z,13.20
2023-05-19T22:08:06.675Z,13.20
2023-05-19T22:10:33.752Z,13.20
2023-05-19T22:13:00.698Z,13.20
2023-05-19T22:15:27.489Z,13.20
2023-05-19T22:17:54.294Z,13.10
2023-05-19T22:20:21.201Z,13.10
2023-05-19T22:22:47.954Z,13.10
2023-05-19T22:25:14.822Z,13.00
2023-05-19T22:27:41.575Z,13.00
2023-05-19T22:30:08.566Z,13.00
2023-05-19T22:32:35.734Z,13.00
2023-05-19T22:35:02.600Z,12.90
2023-05-19T22:37:29.632Z,12.90
2023-05-19T22:39:56.522Z,12.80
2023-05-19T22:42:23.250Z,12.80
2023-05-19T22:44:49.981Z,12.80
2023-05-19T22:47:16.744Z,12.70
2023-05-19T22:49:43.589Z,12.70
2023-05-19T22:52:10.741Z,12.70
2023-05-19T22:54:37.694Z,12.70
2023-05-19T22:57:05.099Z,12.70
2023-05-19T22:59:31.883Z,12.70
2023-05-19T23:01:58.670Z,12.60
2023-05-19T23:04:25.687Z,12.60
2023-05-19T23:06:52.702Z,12.50
2023-05-19T23:09:19.561Z,12.50
2023-05-19T23:11:46.347Z,12.50
2023-05-19T23:14:13.110Z,12.40
2023-05-19T23:16:39.926Z,12.40
2023-05-19T23:19:07.343Z,12.40
2023-05-19T23:21:34.118Z,12.40
2023-05-19T23:24:00.986Z,12.40
2023-05-19T23:26:27.721Z,12.40
2023-05-19T23:28:54.521Z,12.30
2023-05-19T23:31:21.853Z,12.30
2023-05-19T23:33:49.083Z,12.20
2023-05-19T23:36:16.021Z,12.30
2023-05-19T23:38:43.354Z,12.30
2023-05-19T23:41:10.242Z,12.20
2023-05-19T23:43:37.833Z,12.20
2023-05-19T23:46:04.686Z,12.20
2023-05-19T23:48:31.502Z,12.20
2023-05-19T23:50:58.658Z,12.20
2023-05-19T23:53:25.593Z,12.20
2023-05-19T23:55:52.415Z,12.20
2023-05-19T23:58:19.200Z,12.10
